sensor_id;sensor_type;location;lat;lon;timestamp;temperature;humidity
45012;DHT22;63444;48.148;11.542;2023-09-19T00:00:43;18.60;99.90
45012;DHT22;63444;48.148;11.542;2023-09-19T00:03:09;18.60;99.90
45012;DHT22;63444;48.148;11.542;2023-09-19T00:05:36;18.60;99.90
45012;DHT22;63444;48.148;11.542;2023-09-19T00:08:02;18.60;99.90
45012;DHT22;63444;48.148;11.542;2023-09-19T00:10:32;18.60;99.90
45012;DHT22;63444;48.148;11.542;2023-09-19T00:13:02;18.60;99.90
45012;DHT22;63444;48.148;11.542;2023-09-19T00:15:38;18.60;99.90
45012;DHT22;63444;48.148;11.542;2023-09-19T00:18:04;18.60;99.90
45012;DHT22;63444;48.148;11.542;2023-09-19T00:20:36;18.70;99.90
45012;DHT22;63444;48.148;11.542;2023-09-19T00:23:02;18.70;99.90
45012;DHT22;63444;48.148;11.542;2023-09-19T00:25:31;18.70;99.90
45012;DHT22;63444;48.148;11.542;2023-09-19T00:27:57;18.80;99.90
45012;DHT22;63444;48.148;11.542;2023-09-19T00:30:23;18.80;99.90
45012;DHT22;63444;48.148;11.542;2023-09-19T00:32:50;18.80;99.90
45012;DHT22;63444;48.148;11.542;2023-09-19T00:35:22;18.80;99.90
45012;DHT22;63444;48.148;11.542;2023-09-19T00:37:51;18.80;99.90
45012;DHT22;63444;48.148;11.542;2023-09-19T00:40:17;18.80;99.90
45012;DHT22;63444;48.148;11.542;2023-09-19T00:42:44;18.80;99.90
45012;DHT22;63444;48.148;11.542;2023-09-19T00:45:11;18.80;99.90
45012;DHT22;63444;48.148;11.542;2023-09-19T00:47:51;18.80;99.90
45012;DHT22;63444;48.148;11.542;2023-09-19T00:50:19;18.80;99.90
45012;DHT22;63444;48.148;11.542;2023-09-19T00:52:47;18.80;99.90
45012;DHT22;63444;48.148;11.542;2023-09-19T00:55:14;18.80;99.90
45012;DHT22;63444;48.148;11.542;2023-09-19T00:57:41;18.80;99.90
45012;DHT22;63444;48.148;11.542;2023-09-19T01:00:08;18.70;99.90
45012;DHT22;63444;48.148;11.542;2023-09-19T01:02:37;18.70;99.90
45012;DHT22;63444;48.148;11.542;2023-09-19T01:05:03;18.70;99.90
45012;DHT22;63444;48.148;11.542;2023-09-19T01:07:32;18.70;99.90
45012;DHT22;63444;48.148;11.542;2023-09-19T01:10:00;18.70;99.90
45012;DHT22;63444;48.148;11.542;2023-09-19T01:12:36;18.70;99.90
45012;DHT22;63444;48.148;11.542;2023-09-19T01:15:38;18.70;99.90
45012;DHT22;63444;48.148;11.542;2023-09-19T01:26:03;18.70;99.90
45012;DHT22;63444;48.148;11.542;2023-09-19T01:28:52;18.80;99.90
45012;DHT22;63444;48.148;11.542;2023-09-19T01:31:24;18.80;99.90
45012;DHT22;63444;48.148;11.542;2023-09-19T01:33:54;18.70;99.90
45012;DHT22;63444;48.148;11.542;2023-09-19T01:36:26;18.70;99.90
45012;DHT22;63444;48.148;11.542;2023-09-19T01:38:52;18.70;99.90
45012;DHT22;63444;48.148;11.542;2023-09-19T01:44:31;18.70;99.90
45012;DHT22;63444;48.148;11.542;2023-09-19T01:47:04;18.70;99.90
45012;DHT22;63444;48.148;11.542;2023-09-19T01:50:32;18.70;99.90
45012;DHT22;63444;48.148;11.542;2023-09-19T01:52:36;18.70;99.90
45012;DHT22;63444;48.148;11.542;2023-09-19T01:55:08;18.70;99.90
45012;DHT22;63444;48.148;11.542;2023-09-19T01:57:46;18.80;99.90
45012;DHT22;63444;48.148;11.542;2023-09-19T02:00:16;18.70;99.90
45012;DHT22;63444;48.148;11.542;2023-09-19T02:02:46;18.70;99.90
45012;DHT22;63444;48.148;11.542;2023-09-19T02:05:13;18.70;99.90
45012;DHT22;63444;48.148;11.542;2023-09-19T02:07:39;18.70;99.90
45012;DHT22;63444;48.148;11.542;2023-09-19T02:10:06;18.70;99.90
45012;DHT22;63444;48.148;11.542;2023-09-19T02:12:33;18.70;99.90
45012;DHT22;63444;48.148;11.542;2023-09-19T02:14:58;18.70;99.90
45012;DHT22;63444;48.148;11.542;2023-09-19T02:17:25;18.70;99.90
45012;DHT22;63444;48.148;11.542;2023-09-19T02:19:54;18.70;99.90
45012;DHT22;63444;48.148;11.542;2023-09-19T02:22:23;18.70;99.90
45012;DHT22;63444;48.148;11.542;2023-09-19T02:24:50;18.70;99.90
45012;DHT22;63444;48.148;11.542;2023-09-19T02:27:16;18.70;99.90
45012;DHT22;63444;48.148;11.542;2023-09-19T02:29:43;18.70;99.90
45012;DHT22;63444;48.148;11.542;2023-09-19T02:32:09;18.70;99.90
45012;DHT22;63444;48.148;11.542;2023-09-19T02:34:37;18.70;99.90
45012;DHT22;63444;48.148;11.542;2023-09-19T02:37:07;18.60;99.90
45012;DHT22;63444;48.148;11.542;2023-09-19T02:39:34;18.60;99.90
45012;DHT22;63444;48.148;11.542;2023-09-19T02:42:00;18.60;99.90
45012;DHT22;63444;48.148;11.542;2023-09-19T02:44:26;18.60;99.90
45012;DHT22;63444;48.148;11.542;2023-09-19T02:46:52;18.60;99.90
45012;DHT22;63444;48.148;11.542;2023-09-19T02:49:18;18.60;99.90
45012;DHT22;63444;48.148;11.542;2023-09-19T02:51:44;18.60;99.90
45012;DHT22;63444;48.148;11.542;2023-09-19T02:54:11;18.60;99.90
45012;DHT22;63444;48.148;11.542;2023-09-19T02:56:37;18.60;99.90
45012;DHT22;63444;48.148;11.542;2023-09-19T02:59:03;18.60;99.90
45012;DHT22;63444;48.148;11.542;2023-09-19T03:01:29;18.60;99.90
45012;DHT22;63444;48.148;11.542;2023-09-19T03:03:55;18.60;99.90
45012;DHT22;63444;48.148;11.542;2023-09-19T03:06:21;18.60;99.90
45012;DHT22;63444;48.148;11.542;2023-09-19T03:08:47;18.60;99.90
45012;DHT22;63444;48.148;11.542;2023-09-19T03:11:14;18.60;99.90
45012;DHT22;63444;48.148;11.542;2023-09-19T03:13:40;18.60;99.90
45012;DHT22;63444;48.148;11.542;2023-09-19T03:16:07;18.60;99.90
45012;DHT22;63444;48.148;11.542;2023-09-19T03:18:36;18.50;99.90
45012;DHT22;63444;48.148;11.542;2023-09-19T03:21:02;18.50;99.90
45012;DHT22;63444;48.148;11.542;2023-09-19T03:23:28;18.50;99.90
45012;DHT22;63444;48.148;11.542;2023-09-19T03:25:55;18.40;99.90
45012;DHT22;63444;48.148;11.542;2023-09-19T03:28:22;18.40;99.90
45012;DHT22;63444;48.148;11.542;2023-09-19T03:31:01;18.40;99.90
45012;DHT22;63444;48.148;11.542;2023-09-19T03:33:27;18.40;99.90
45012;DHT22;63444;48.148;11.542;2023-09-19T03:35:53;18.40;99.90
45012;DHT22;63444;48.148;11.542;2023-09-19T03:38:19;18.40;99.90
45012;DHT22;63444;48.148;11.542;2023-09-19T03:40:45;18.40;99.90
45012;DHT22;63444;48.148;11.542;2023-09-19T03:43:10;18.40;99.90
45012;DHT22;63444;48.148;11.542;2023-09-19T03:45:36;18.30;99.90
45012;DHT22;63444;48.148;11.542;2023-09-19T03:48:08;18.30;99.90
45012;DHT22;63444;48.148;11.542;2023-09-19T03:50:34;18.30;99.90
45012;DHT22;63444;48.148;11.542;2023-09-19T03:52:59;18.30;99.90
45012;DHT22;63444;48.148;11.542;2023-09-19T03:55:25;18.30;99.90
45012;DHT22;63444;48.148;11.542;2023-09-19T03:57:50;18.30;99.90
45012;DHT22;63444;48.148;11.542;2023-09-19T04:00:17;18.30;99.90
45012;DHT22;63444;48.148;11.542;2023-09-19T04:02:46;18.30;99.90
45012;DHT22;63444;48.148;11.542;2023-09-19T04:05:12;18.40;99.90
45012;DHT22;63444;48.148;11.542;2023-09-19T04:07:38;18.30;99.90
45012;DHT22;63444;48.148;11.542;2023-09-19T04:10:03;18.30;99.90
45012;DHT22;63444;48.148;11.542;2023-09-19T04:12:29;18.30;99.90
45012;DHT22;63444;48.148;11.542;2023-09-19T04:14:55;18.30;99.90
45012;DHT22;63444;48.148;11.542;2023-09-19T04:17:21;18.30;99.90
45012;DHT22;63444;48.148;11.542;2023-09-19T04:19:46;18.30;99.90
45012;DHT22;63444;48.148;11.542;2023-09-19T04:22:12;18.30;99.90
45012;DHT22;63444;48.148;11.542;2023-09-19T04:24:38;18.30;99.90
45012;DHT22;63444;48.148;11.542;2023-09-19T04:27:04;18.30;99.90
45012;DHT22;63444;48.148;11.542;2023-09-19T04:29:30;18.30;99.90
45012;DHT22;63444;48.148;11.542;2023-09-19T04:31:56;18.30;99.90
45012;DHT22;63444;48.148;11.542;2023-09-19T04:34:22;18.20;99.90
45012;DHT22;63444;48.148;11.542;2023-09-19T04:36:49;18.30;99.90
45012;DHT22;63444;48.148;11.542;2023-09-19T04:39:15;18.30;99.90
45012;DHT22;63444;48.148;11.542;2023-09-19T04:41:42;18.30;99.90
45012;DHT22;63444;48.148;11.542;2023-09-19T04:44:07;18.30;99.90
45012;DHT22;63444;48.148;11.542;2023-09-19T04:46:36;18.40;99.90
45012;DHT22;63444;48.148;11.542;2023-09-19T04:49:01;18.40;99.90
45012;DHT22;63444;48.148;11.542;2023-09-19T04:51:28;18.40;99.90
45012;DHT22;63444;48.148;11.542;2023-09-19T04:53:58;18.40;99.90
45012;DHT22;63444;48.148;11.542;2023-09-19T04:56:23;18.40;99.90
45012;DHT22;63444;48.148;11.542;2023-09-19T04:58:49;18.50;99.90
45012;DHT22;63444;48.148;11.542;2023-09-19T05:01:15;18.40;99.90
45012;DHT22;63444;48.148;11.542;2023-09-19T05:03:41;18.50;99.90
45012;DHT22;63444;48.148;11.542;2023-09-19T05:06:07;18.50;99.90
45012;DHT22;63444;48.148;11.542;2023-09-19T05:08:33;18.50;99.90
45012;DHT22;63444;48.148;11.542;2023-09-19T05:11:01;18.50;99.90
45012;DHT22;63444;48.148;11.542;2023-09-19T05:13:27;18.50;99.90
45012;DHT22;63444;48.148;11.542;2023-09-19T05:15:53;18.50;99.90
45012;DHT22;63444;48.148;11.542;2023-09-19T05:18:18;18.40;99.90
45012;DHT22;63444;48.148;11.542;2023-09-19T05:20:44;18.40;99.90
45012;DHT22;63444;48.148;11.542;2023-09-19T05:23:10;18.40;99.90
45012;DHT22;63444;48.148;11.542;2023-09-19T05:25:39;18.40;99.90
45012;DHT22;63444;48.148;11.542;2023-09-19T05:28:07;18.40;99.90
45012;DHT22;63444;48.148;11.542;2023-09-19T05:30:33;18.40;99.90
45012;DHT22;63444;48.148;11.542;2023-09-19T05:32:59;18.40;99.90
45012;DHT22;63444;48.148;11.542;2023-09-19T05:35:25;18.40;99.90
45012;DHT22;63444;48.148;11.542;2023-09-19T05:37:52;18.40;99.90
45012;DHT22;63444;48.148;11.542;2023-09-19T05:40:18;18.30;99.90
45012;DHT22;63444;48.148;11.542;2023-09-19T05:42:45;18.40;99.90
45012;DHT22;63444;48.148;11.542;2023-09-19T05:45:11;18.40;99.90
45012;DHT22;63444;48.148;11.542;2023-09-19T05:47:38;18.40;99.90
45012;DHT22;63444;48.148;11.542;2023-09-19T05:50:06;18.40;99.90
45012;DHT22;63444;48.148;11.542;2023-09-19T05:52:33;18.40;99.90
45012;DHT22;63444;48.148;11.542;2023-09-19T05:54:58;18.30;99.90
45012;DHT22;63444;48.148;11.542;2023-09-19T05:57:25;18.30;99.90
45012;DHT22;63444;48.148;11.542;2023-09-19T05:59:51;18.30;99.90
45012;DHT22;63444;48.148;11.542;2023-09-19T06:02:16;18.40;99.90
45012;DHT22;63444;48.148;11.542;2023-09-19T06:04:44;18.40;99.90
45012;DHT22;63444;48.148;11.542;2023-09-19T06:07:09;18.50;99.90
45012;DHT22;63444;48.148;11.542;2023-09-19T06:09:37;18.50;99.90
45012;DHT22;63444;48.148;11.542;2023-09-19T06:12:03;18.60;99.90
45012;DHT22;63444;48.148;11.542;2023-09-19T06:14:29;18.60;99.90
45012;DHT22;63444;48.148;11.542;2023-09-19T06:16:54;18.60;99.90
45012;DHT22;63444;48.148;11.542;2023-09-19T06:19:20;18.70;99.90
45012;DHT22;63444;48.148;11.542;2023-09-19T06:21:48;18.70;99.90
45012;DHT22;63444;48.148;11.542;2023-09-19T06:24:14;18.80;99.90
45012;DHT22;63444;48.148;11.542;2023-09-19T06:26:40;18.80;99.90
45012;DHT22;63444;48.148;11.542;2023-09-19T06:29:06;18.90;99.90
45012;DHT22;63444;48.148;11.542;2023-09-19T06:31:33;18.80;99.90
45012;DHT22;63444;48.148;11.542;2023-09-19T06:33:59;18.90;99.90
45012;DHT22;63444;48.148;11.542;2023-09-19T06:36:25;18.90;99.90
45012;DHT22;63444;48.148;11.542;2023-09-19T06:38:50;18.90;99.90
45012;DHT22;63444;48.148;11.542;2023-09-19T06:41:18;19.00;99.90
45012;DHT22;63444;48.148;11.542;2023-09-19T06:43:44;19.00;99.90
45012;DHT22;63444;48.148;11.542;2023-09-19T06:46:10;19.10;99.90
45012;DHT22;63444;48.148;11.542;2023-09-19T06:48:38;19.10;99.90
45012;DHT22;63444;48.148;11.542;2023-09-19T06:51:03;19.20;99.90
45012;DHT22;63444;48.148;11.542;2023-09-19T06:53:33;19.20;99.90
45012;DHT22;63444;48.148;11.542;2023-09-19T06:56:01;19.30;99.90
45012;DHT22;63444;48.148;11.542;2023-09-19T06:58:27;19.40;99.90
45012;DHT22;63444;48.148;11.542;2023-09-19T07:00:52;19.60;99.90
45012;DHT22;63444;48.148;11.542;2023-09-19T07:03:19;19.70;99.90
45012;DHT22;63444;48.148;11.542;2023-09-19T07:05:48;20.00;99.90
45012;DHT22;63444;48.148;11.542;2023-09-19T07:08:14;20.10;99.90
45012;DHT22;63444;48.148;11.542;2023-09-19T07:10:41;20.30;99.90
45012;DHT22;63444;48.148;11.542;2023-09-19T07:13:10;20.30;99.90
45012;DHT22;63444;48.148;11.542;2023-09-19T07:15:37;20.30;99.90
45012;DHT22;63444;48.148;11.542;2023-09-19T07:18:06;20.30;99.90
45012;DHT22;63444;48.148;11.542;2023-09-19T07:20:32;20.30;99.90
45012;DHT22;63444;48.148;11.542;2023-09-19T07:22:59;20.20;99.90
45012;DHT22;63444;48.148;11.542;2023-09-19T07:25:29;20.30;99.90
45012;DHT22;63444;48.148;11.542;2023-09-19T07:27:56;20.30;99.90
45012;DHT22;63444;48.148;11.542;2023-09-19T07:30:22;20.40;99.90
45012;DHT22;63444;48.148;11.542;2023-09-19T07:32:48;20.50;99.90
45012;DHT22;63444;48.148;11.542;2023-09-19T07:35:13;20.50;99.90
45012;DHT22;63444;48.148;11.542;2023-09-19T07:37:40;20.50;99.90
45012;DHT22;63444;48.148;11.542;2023-09-19T07:40:06;20.70;99.90
45012;DHT22;63444;48.148;11.542;2023-09-19T07:42:36;20.80;99.90
45012;DHT22;63444;48.148;11.542;2023-09-19T07:45:06;21.00;99.90
45012;DHT22;63444;48.148;11.542;2023-09-19T07:47:33;21.00;99.90
45012;DHT22;63444;48.148;11.542;2023-09-19T07:50:00;21.10;99.90
45012;DHT22;63444;48.148;11.542;2023-09-19T07:52:28;21.10;99.90
45012;DHT22;63444;48.148;11.542;2023-09-19T07:54:54;21.20;99.90
45012;DHT22;63444;48.148;11.542;2023-09-19T07:57:20;21.30;99.90
45012;DHT22;63444;48.148;11.542;2023-09-19T07:59:45;21.40;99.90
45012;DHT22;63444;48.148;11.542;2023-09-19T08:02:11;21.50;99.90
45012;DHT22;63444;48.148;11.542;2023-09-19T08:04:45;21.70;99.90
45012;DHT22;63444;48.148;11.542;2023-09-19T08:07:14;21.90;99.90
45012;DHT22;63444;48.148;11.542;2023-09-19T08:09:40;21.90;99.90
45012;DHT22;63444;48.148;11.542;2023-09-19T08:12:07;22.00;99.90
45012;DHT22;63444;48.148;11.542;2023-09-19T08:14:36;22.10;99.90
45012;DHT22;63444;48.148;11.542;2023-09-19T08:17:02;22.10;99.90
45012;DHT22;63444;48.148;11.542;2023-09-19T08:19:29;22.00;99.90
45012;DHT22;63444;48.148;11.542;2023-09-19T08:21:58;21.90;99.90
45012;DHT22;63444;48.148;11.542;2023-09-19T08:24:29;21.80;99.90
45012;DHT22;63444;48.148;11.542;2023-09-19T08:26:55;21.80;99.90
45012;DHT22;63444;48.148;11.542;2023-09-19T08:29:22;21.80;99.90
45012;DHT22;63444;48.148;11.542;2023-09-19T08:31:54;21.90;99.90
45012;DHT22;63444;48.148;11.542;2023-09-19T08:34:19;22.10;99.90
45012;DHT22;63444;48.148;11.542;2023-09-19T08:36:46;22.30;99.90
45012;DHT22;63444;48.148;11.542;2023-09-19T08:39:13;22.40;99.90
45012;DHT22;63444;48.148;11.542;2023-09-19T08:41:39;22.60;99.90
45012;DHT22;63444;48.148;11.542;2023-09-19T08:44:05;22.80;99.90
45012;DHT22;63444;48.148;11.542;2023-09-19T08:46:31;23.00;99.90
45012;DHT22;63444;48.148;11.542;2023-09-19T08:49:13;23.10;99.90
45012;DHT22;63444;48.148;11.542;2023-09-19T08:51:49;23.30;99.90
45012;DHT22;63444;48.148;11.542;2023-09-19T08:54:24;23.40;99.90
45012;DHT22;63444;48.148;11.542;2023-09-19T08:56:53;23.60;99.90
45012;DHT22;63444;48.148;11.542;2023-09-19T08:59:22;23.70;99.90
45012;DHT22;63444;48.148;11.542;2023-09-19T09:01:50;23.90;99.90
45012;DHT22;63444;48.148;11.542;2023-09-19T09:04:19;24.00;99.90
45012;DHT22;63444;48.148;11.542;2023-09-19T09:06:46;24.10;99.90
45012;DHT22;63444;48.148;11.542;2023-09-19T09:09:15;24.20;99.90
45012;DHT22;63444;48.148;11.542;2023-09-19T09:11:40;24.10;99.90
45012;DHT22;63444;48.148;11.542;2023-09-19T09:14:06;24.00;99.90
45012;DHT22;63444;48.148;11.542;2023-09-19T09:16:33;23.90;99.90
45012;DHT22;63444;48.148;11.542;2023-09-19T09:18:58;23.90;99.90
45012;DHT22;63444;48.148;11.542;2023-09-19T09:21:25;23.80;99.90
45012;DHT22;63444;48.148;11.542;2023-09-19T09:23:51;23.80;99.90
45012;DHT22;63444;48.148;11.542;2023-09-19T09:29:04;23.80;99.90
45012;DHT22;63444;48.148;11.542;2023-09-19T09:31:29;23.90;99.90
45012;DHT22;63444;48.148;11.542;2023-09-19T09:33:55;23.90;99.90
45012;DHT22;63444;48.148;11.542;2023-09-19T09:36:40;23.90;99.90
45012;DHT22;63444;48.148;11.542;2023-09-19T09:39:07;24.00;99.50
45012;DHT22;63444;48.148;11.542;2023-09-19T09:41:43;23.90;99.00
45012;DHT22;63444;48.148;11.542;2023-09-19T09:44:17;23.90;99.00
45012;DHT22;63444;48.148;11.542;2023-09-19T09:46:46;23.90;99.20
45012;DHT22;63444;48.148;11.542;2023-09-19T09:49:22;24.00;98.90
45012;DHT22;63444;48.148;11.542;2023-09-19T09:54:31;24.00;98.90
45012;DHT22;63444;48.148;11.542;2023-09-19T09:57:03;24.20;98.00
45012;DHT22;63444;48.148;11.542;2023-09-19T09:59:54;24.20;97.80
45012;DHT22;63444;48.148;11.542;2023-09-19T10:02:27;24.30;97.80
45012;DHT22;63444;48.148;11.542;2023-09-19T10:05:12;24.30;98.00
45012;DHT22;63444;48.148;11.542;2023-09-19T10:07:53;24.30;97.90
45012;DHT22;63444;48.148;11.542;2023-09-19T10:10:52;24.20;97.60
45012;DHT22;63444;48.148;11.542;2023-09-19T10:13:37;24.10;97.60
45012;DHT22;63444;48.148;11.542;2023-09-19T10:16:09;24.10;98.30
45012;DHT22;63444;48.148;11.542;2023-09-19T10:18:36;24.10;97.90
45012;DHT22;63444;48.148;11.542;2023-09-19T10:21:04;24.10;98.00
45012;DHT22;63444;48.148;11.542;2023-09-19T10:23:32;24.00;97.90
45012;DHT22;63444;48.148;11.542;2023-09-19T10:26:01;24.00;97.70
45012;DHT22;63444;48.148;11.542;2023-09-19T10:28:28;24.00;97.70
45012;DHT22;63444;48.148;11.542;2023-09-19T10:30:55;24.00;97.60
45012;DHT22;63444;48.148;11.542;2023-09-19T10:33:23;24.00;97.80
45012;DHT22;63444;48.148;11.542;2023-09-19T10:35:53;24.10;97.70
45012;DHT22;63444;48.148;11.542;2023-09-19T10:38:26;24.20;97.40
45012;DHT22;63444;48.148;11.542;2023-09-19T10:40:55;24.20;96.80
45012;DHT22;63444;48.148;11.542;2023-09-19T10:43:26;24.30;96.90
45012;DHT22;63444;48.148;11.542;2023-09-19T10:45:53;24.20;96.90
45012;DHT22;63444;48.148;11.542;2023-09-19T10:48:22;24.10;96.90
45012;DHT22;63444;48.148;11.542;2023-09-19T10:51:02;23.90;97.10
45012;DHT22;63444;48.148;11.542;2023-09-19T10:54:01;23.80;97.50
45012;DHT22;63444;48.148;11.542;2023-09-19T10:56:33;23.80;97.60
45012;DHT22;63444;48.148;11.542;2023-09-19T10:59:14;23.80;97.30
45012;DHT22;63444;48.148;11.542;2023-09-19T11:01:50;23.80;97.30
45012;DHT22;63444;48.148;11.542;2023-09-19T11:07:12;23.90;97.50
45012;DHT22;63444;48.148;11.542;2023-09-19T11:09:46;24.00;97.70
45012;DHT22;63444;48.148;11.542;2023-09-19T11:12:31;24.00;97.40
45012;DHT22;63444;48.148;11.542;2023-09-19T11:15:02;24.00;97.60
45012;DHT22;63444;48.148;11.542;2023-09-19T11:30:31;24.30;94.40
45012;DHT22;63444;48.148;11.542;2023-09-19T11:33:27;24.30;94.30
45012;DHT22;63444;48.148;11.542;2023-09-19T11:36:06;24.30;94.20
45012;DHT22;63444;48.148;11.542;2023-09-19T11:46:32;24.50;93.50
45012;DHT22;63444;48.148;11.542;2023-09-19T11:49:08;24.30;93.20
45012;DHT22;63444;48.148;11.542;2023-09-19T11:51:42;24.20;93.30
45012;DHT22;63444;48.148;11.542;2023-09-19T11:54:12;24.20;93.40
45012;DHT22;63444;48.148;11.542;2023-09-19T11:56:43;24.10;93.60
45012;DHT22;63444;48.148;11.542;2023-09-19T11:59:11;24.00;93.70
45012;DHT22;63444;48.148;11.542;2023-09-19T12:01:38;24.00;94.00
45012;DHT22;63444;48.148;11.542;2023-09-19T12:04:11;24.00;94.40
45012;DHT22;63444;48.148;11.542;2023-09-19T12:06:37;24.10;94.50
45012;DHT22;63444;48.148;11.542;2023-09-19T12:09:13;24.10;93.60
45012;DHT22;63444;48.148;11.542;2023-09-19T12:11:42;24.20;93.60
45012;DHT22;63444;48.148;11.542;2023-09-19T12:14:11;24.20;93.40
45012;DHT22;63444;48.148;11.542;2023-09-19T12:16:39;24.20;93.60
45012;DHT22;63444;48.148;11.542;2023-09-19T12:19:18;24.20;93.80
45012;DHT22;63444;48.148;11.542;2023-09-19T12:21:57;24.20;93.90
45012;DHT22;63444;48.148;11.542;2023-09-19T12:24:26;24.20;93.70
45012;DHT22;63444;48.148;11.542;2023-09-19T12:26:59;24.10;93.70
45012;DHT22;63444;48.148;11.542;2023-09-19T12:29:28;24.10;93.60
45012;DHT22;63444;48.148;11.542;2023-09-19T12:31:57;24.10;93.50
45012;DHT22;63444;48.148;11.542;2023-09-19T12:34:24;24.10;93.40
45012;DHT22;63444;48.148;11.542;2023-09-19T12:37:10;24.00;93.50
45012;DHT22;63444;48.148;11.542;2023-09-19T12:39:45;24.00;93.60
45012;DHT22;63444;48.148;11.542;2023-09-19T12:42:23;23.90;93.70
45012;DHT22;63444;48.148;11.542;2023-09-19T12:44:51;23.90;94.00
45012;DHT22;63444;48.148;11.542;2023-09-19T12:47:20;23.90;94.10
45012;DHT22;63444;48.148;11.542;2023-09-19T12:50:08;23.90;93.70
45012;DHT22;63444;48.148;11.542;2023-09-19T12:52:48;24.00;93.70
45012;DHT22;63444;48.148;11.542;2023-09-19T12:57:57;24.10;93.50
45012;DHT22;63444;48.148;11.542;2023-09-19T13:00:41;24.10;93.50
45012;DHT22;63444;48.148;11.542;2023-09-19T13:03:18;24.10;93.50
45012;DHT22;63444;48.148;11.542;2023-09-19T13:05:52;24.00;93.60
45012;DHT22;63444;48.148;11.542;2023-09-19T13:13:33;23.90;96.30
45012;DHT22;63444;48.148;11.542;2023-09-19T13:16:00;23.80;96.40
45012;DHT22;63444;48.148;11.542;2023-09-19T13:18:27;23.80;96.50
45012;DHT22;63444;48.148;11.542;2023-09-19T13:21:09;23.80;96.60
45012;DHT22;63444;48.148;11.542;2023-09-19T13:23:42;23.60;96.90
45012;DHT22;63444;48.148;11.542;2023-09-19T13:26:09;23.50;97.00
45012;DHT22;63444;48.148;11.542;2023-09-19T13:28:37;23.40;97.00
45012;DHT22;63444;48.148;11.542;2023-09-19T13:31:02;23.40;97.10
45012;DHT22;63444;48.148;11.542;2023-09-19T13:33:28;23.30;97.20
45012;DHT22;63444;48.148;11.542;2023-09-19T13:35:54;23.30;97.50
45012;DHT22;63444;48.148;11.542;2023-09-19T13:38:20;23.30;97.10
45012;DHT22;63444;48.148;11.542;2023-09-19T13:40:48;23.30;97.40
45012;DHT22;63444;48.148;11.542;2023-09-19T13:43:13;23.30;97.10
45012;DHT22;63444;48.148;11.542;2023-09-19T13:45:40;23.30;97.40
45012;DHT22;63444;48.148;11.542;2023-09-19T13:48:08;23.30;97.50
45012;DHT22;63444;48.148;11.542;2023-09-19T13:50:34;23.30;97.10
45012;DHT22;63444;48.148;11.542;2023-09-19T13:53:02;23.30;97.10
45012;DHT22;63444;48.148;11.542;2023-09-19T13:55:29;23.30;97.30
45012;DHT22;63444;48.148;11.542;2023-09-19T13:57:54;23.40;95.70
45012;DHT22;63444;48.148;11.542;2023-09-19T14:00:24;23.40;95.40
45012;DHT22;63444;48.148;11.542;2023-09-19T14:02:49;23.50;94.60
45012;DHT22;63444;48.148;11.542;2023-09-19T14:05:16;23.60;94.50
45012;DHT22;63444;48.148;11.542;2023-09-19T14:07:42;23.60;93.70
45012;DHT22;63444;48.148;11.542;2023-09-19T14:10:09;23.60;93.20
45012;DHT22;63444;48.148;11.542;2023-09-19T14:12:38;23.60;93.30
45012;DHT22;63444;48.148;11.542;2023-09-19T14:15:08;23.60;93.60
45012;DHT22;63444;48.148;11.542;2023-09-19T14:17:34;23.60;93.50
45012;DHT22;63444;48.148;11.542;2023-09-19T14:20:00;23.70;94.00
45012;DHT22;63444;48.148;11.542;2023-09-19T14:22:25;23.60;94.20
45012;DHT22;63444;48.148;11.542;2023-09-19T14:24:51;23.60;94.40
45012;DHT22;63444;48.148;11.542;2023-09-19T14:27:18;23.60;94.40
45012;DHT22;63444;48.148;11.542;2023-09-19T14:29:43;23.60;94.30
45012;DHT22;63444;48.148;11.542;2023-09-19T14:32:09;23.60;94.20
45012;DHT22;63444;48.148;11.542;2023-09-19T14:34:35;23.60;94.20
45012;DHT22;63444;48.148;11.542;2023-09-19T14:37:07;23.60;94.10
45012;DHT22;63444;48.148;11.542;2023-09-19T14:39:33;23.60;94.10
45012;DHT22;63444;48.148;11.542;2023-09-19T14:41:58;23.60;94.30
45012;DHT22;63444;48.148;11.542;2023-09-19T14:44:24;23.60;94.20
45012;DHT22;63444;48.148;11.542;2023-09-19T14:46:50;23.60;94.10
45012;DHT22;63444;48.148;11.542;2023-09-19T14:49:15;23.60;94.10
45012;DHT22;63444;48.148;11.542;2023-09-19T14:51:42;23.60;94.40
45012;DHT22;63444;48.148;11.542;2023-09-19T14:54:09;23.60;94.70
45012;DHT22;63444;48.148;11.542;2023-09-19T14:56:35;23.60;94.50
45012;DHT22;63444;48.148;11.542;2023-09-19T14:59:01;23.60;94.50
45012;DHT22;63444;48.148;11.542;2023-09-19T15:01:27;23.60;94.40
45012;DHT22;63444;48.148;11.542;2023-09-19T15:03:53;23.60;94.60
45012;DHT22;63444;48.148;11.542;2023-09-19T15:06:20;23.60;94.10
45012;DHT22;63444;48.148;11.542;2023-09-19T15:08:47;23.60;94.10
45012;DHT22;63444;48.148;11.542;2023-09-19T15:11:14;23.60;93.80
45012;DHT22;63444;48.148;11.542;2023-09-19T15:13:42;23.60;93.80
45012;DHT22;63444;48.148;11.542;2023-09-19T15:16:09;23.60;94.00
45012;DHT22;63444;48.148;11.542;2023-09-19T15:18:36;23.50;94.10
45012;DHT22;63444;48.148;11.542;2023-09-19T15:21:07;23.50;94.40
45012;DHT22;63444;48.148;11.542;2023-09-19T15:23:33;23.50;94.80
45012;DHT22;63444;48.148;11.542;2023-09-19T15:26:00;23.50;94.30
45012;DHT22;63444;48.148;11.542;2023-09-19T15:28:27;23.50;94.50
45012;DHT22;63444;48.148;11.542;2023-09-19T15:31:01;23.50;94.50
45012;DHT22;63444;48.148;11.542;2023-09-19T15:33:27;23.50;94.30
45012;DHT22;63444;48.148;11.542;2023-09-19T15:36:07;23.50;94.20
45012;DHT22;63444;48.148;11.542;2023-09-19T15:39:00;23.50;94.10
45012;DHT22;63444;48.148;11.542;2023-09-19T15:41:30;23.50;94.10
45012;DHT22;63444;48.148;11.542;2023-09-19T15:43:57;23.50;94.20
45012;DHT22;63444;48.148;11.542;2023-09-19T15:46:24;23.50;94.20
45012;DHT22;63444;48.148;11.542;2023-09-19T15:48:52;23.50;93.30
45012;DHT22;63444;48.148;11.542;2023-09-19T15:51:18;23.40;93.40
45012;DHT22;63444;48.148;11.542;2023-09-19T15:53:46;23.30;93.60
45012;DHT22;63444;48.148;11.542;2023-09-19T15:56:13;23.20;93.60
45012;DHT22;63444;48.148;11.542;2023-09-19T15:58:44;23.20;93.20
45012;DHT22;63444;48.148;11.542;2023-09-19T16:01:10;23.10;93.40
45012;DHT22;63444;48.148;11.542;2023-09-19T16:03:44;23.10;93.50
45012;DHT22;63444;48.148;11.542;2023-09-19T16:06:11;23.00;93.40
45012;DHT22;63444;48.148;11.542;2023-09-19T16:08:45;23.00;93.40
45012;DHT22;63444;48.148;11.542;2023-09-19T16:11:12;23.00;93.50
45012;DHT22;63444;48.148;11.542;2023-09-19T16:13:39;22.90;93.60